createdAt,value
2017-10-30T00:00:30.038Z,5.78
2017-10-30T00:02:57.718Z,5.81
2017-10-30T00:05:25.348Z,5.70
2017-10-30T00:07:53.022Z,5.73
2017-10-30T00:10:20.666Z,5.67
2017-10-30T00:12:48.358Z,5.54
2017-10-30T00:15:15.996Z,5.43
2017-10-30T00:17:43.639Z,5.40
2017-10-30T00:20:11.327Z,5.46
2017-10-30T00:22:38.970Z,5.56
2017-10-30T00:25:06.686Z,5.55
2017-10-30T00:27:34.347Z,5.58
2017-10-30T00:30:02.046Z,5.63
2017-10-30T00:32:29.686Z,5.59
2017-10-30T00:34:57.367Z,5.51
2017-10-30T00:37:25.002Z,5.43
2017-10-30T00:39:52.671Z,5.37
2017-10-30T00:42:21.228Z,5.31
2017-10-30T00:44:48.910Z,5.29
2017-10-30T00:47:16.571Z,5.28
2017-10-30T00:49:44.261Z,5.35
2017-10-30T00:52:11.900Z,5.42
2017-10-30T00:54:39.575Z,5.46
2017-10-30T00:57:07.226Z,5.42
2017-10-30T00:59:34.911Z,5.41
2017-10-30T01:02:02.563Z,5.36
2017-10-30T01:04:30.213Z,5.33
2017-10-30T01:06:57.886Z,5.28
2017-10-30T01:09:25.525Z,5.23
2017-10-30T01:11:53.198Z,5.18
2017-10-30T01:14:20.868Z,5.14
2017-10-30T01:16:48.541Z,5.12
2017-10-30T01:19:16.184Z,5.11
2017-10-30T01:21:43.862Z,5.12
2017-10-30T01:24:11.562Z,5.08
2017-10-30T01:26:39.230Z,5.13
2017-10-30T01:29:06.875Z,5.11
2017-10-30T01:31:34.565Z,5.09
2017-10-30T01:34:02.218Z,5.09
2017-10-30T01:36:29.878Z,5.11
2017-10-30T01:38:57.516Z,5.06
2017-10-30T01:41:25.199Z,5.05
2017-10-30T01:43:52.846Z,5.10
2017-10-30T01:46:20.516Z,5.09
2017-10-30T01:48:48.168Z,5.09
2017-10-30T01:51:15.853Z,5.01
2017-10-30T01:53:43.493Z,4.97
2017-10-30T01:56:11.179Z,4.92
2017-10-30T01:58:38.822Z,4.88
2017-10-30T02:01:07.429Z,4.87
2017-10-30T02:03:35.067Z,4.94
2017-10-30T02:06:02.733Z,5.02
2017-10-30T02:08:30.376Z,5.12
2017-10-30T02:10:58.046Z,5.21
2017-10-30T02:13:25.708Z,5.09
2017-10-30T02:15:53.389Z,4.98
2017-10-30T02:18:21.023Z,4.98
2017-10-30T02:20:48.717Z,4.93
2017-10-30T02:23:16.403Z,4.92
2017-10-30T02:25:44.103Z,5.03
2017-10-30T02:28:11.742Z,5.09
2017-10-30T02:30:39.427Z,5.14
2017-10-30T02:33:07.100Z,5.17
2017-10-30T02:35:34.790Z,5.22
2017-10-30T02:38:02.422Z,5.15
2017-10-30T02:40:30.073Z,5.17
2017-10-30T02:42:57.763Z,5.19
2017-10-30T02:45:25.414Z,5.17
2017-10-30T02:47:53.123Z,5.12
2017-10-30T02:50:20.780Z,5.11
2017-10-30T02:52:48.455Z,5.14
2017-10-30T02:55:16.098Z,5.10
2017-10-30T02:57:43.774Z,5.01
2017-10-30T03:00:11.411Z,4.94
2017-10-30T03:02:39.097Z,4.87
2017-10-30T03:05:06.751Z,4.84
2017-10-30T03:07:34.459Z,4.90
2017-10-30T03:10:02.111Z,4.93
2017-10-30T03:12:29.783Z,4.94
2017-10-30T03:14:57.430Z,4.96
2017-10-30T03:17:25.157Z,4.97
2017-10-30T03:19:52.828Z,5.00
2017-10-30T03:22:20.552Z,4.97
2017-10-30T03:24:48.257Z,4.90
2017-10-30T03:27:15.923Z,4.87
2017-10-30T03:29:43.585Z,4.89
2017-10-30T03:32:11.288Z,4.87
2017-10-30T03:34:38.927Z,4.90
2017-10-30T03:37:06.577Z,4.85
2017-10-30T03:39:34.294Z,4.92
2017-10-30T03:42:01.934Z,4.87
2017-10-30T03:44:29.611Z,4.90
2017-10-30T03:46:57.249Z,4.92
2017-10-30T03:49:24.920Z,4.94
2017-10-30T03:51:52.559Z,4.95
2017-10-30T03:54:20.228Z,4.94
2017-10-30T03:56:47.873Z,4.97
2017-10-30T03:59:15.541Z,4.92
2017-10-30T04:01:43.201Z,4.88
2017-10-30T04:04:10.931Z,4.84
2017-10-30T04:06:38.575Z,4.84
2017-10-30T04:09:06.254Z,4.85
2017-10-30T04:11:33.887Z,4.89
2017-10-30T04:14:01.580Z,4.89
2017-10-30T04:16:29.215Z,4.90
2017-10-30T04:18:56.911Z,4.94
2017-10-30T04:21:24.556Z,4.92
2017-10-30T04:23:52.267Z,4.88
2017-10-30T04:26:19.909Z,4.87
2017-10-30T04:28:47.586Z,4.87
2017-10-30T04:31:15.212Z,4.85
2017-10-30T04:33:42.888Z,4.85
2017-10-30T04:36:10.524Z,4.92
2017-10-30T04:38:38.200Z,4.93
2017-10-30T04:41:05.839Z,4.95
2017-10-30T04:43:33.489Z,4.92
2017-10-30T04:46:01.164Z,4.90
2017-10-30T04:48:28.810Z,4.84
2017-10-30T04:50:56.491Z,4.89
2017-10-30T04:53:24.128Z,4.84
2017-10-30T04:55:51.811Z,4.83
2017-10-30T04:58:19.459Z,4.73
2017-10-30T05:00:47.135Z,4.72
2017-10-30T05:03:14.777Z,4.71
2017-10-30T05:05:42.467Z,4.72
2017-10-30T05:08:10.125Z,4.71
2017-10-30T05:10:37.800Z,4.70
2017-10-30T05:13:05.443Z,4.59
2017-10-30T05:15:33.118Z,4.53
2017-10-30T05:18:00.776Z,4.45
2017-10-30T05:20:28.441Z,4.48
2017-10-30T05:22:56.116Z,4.44
2017-10-30T05:25:23.778Z,4.31
2017-10-30T05:27:51.422Z,4.17
2017-10-30T05:30:19.101Z,4.08
2017-10-30T05:32:46.747Z,4.02
2017-10-30T05:35:14.421Z,3.96
2017-10-30T05:37:42.073Z,4.06
2017-10-30T05:40:09.775Z,4.03
2017-10-30T05:42:37.428Z,4.05
2017-10-30T05:45:05.083Z,4.08
2017-10-30T05:47:32.759Z,4.13
2017-10-30T05:50:00.408Z,4.10
2017-10-30T05:52:28.113Z,4.07
2017-10-30T05:54:55.759Z,3.98
2017-10-30T05:57:23.447Z,3.91
2017-10-30T05:59:51.085Z,3.88
2017-10-30T06:02:18.758Z,3.83
2017-10-30T06:04:46.392Z,3.84
2017-10-30T06:07:14.064Z,3.80
2017-10-30T06:09:41.715Z,3.82
2017-10-30T06:12:09.327Z,3.83
2017-10-30T06:14:36.974Z,3.83
2017-10-30T06:17:04.648Z,3.82
2017-10-30T06:19:32.288Z,3.87
2017-10-30T06:21:59.974Z,3.89
2017-10-30T06:24:27.657Z,3.92
2017-10-30T06:26:55.360Z,3.94
2017-10-30T06:29:23.011Z,3.99
2017-10-30T06:31:50.642Z,4.10
2017-10-30T06:34:18.320Z,4.11
2017-10-30T06:36:45.958Z,4.08
2017-10-30T06:39:13.655Z,4.09
2017-10-30T06:41:41.287Z,4.06
2017-10-30T06:44:08.978Z,4.06
2017-10-30T06:46:36.631Z,4.07
2017-10-30T06:49:04.297Z,4.05
2017-10-30T06:51:31.963Z,4.15
2017-10-30T06:53:59.640Z,4.27
2017-10-30T06:56:27.279Z,4.33
2017-10-30T06:58:54.959Z,4.45
2017-10-30T07:01:22.618Z,4.56
2017-10-30T07:03:50.303Z,4.70
2017-10-30T07:06:17.949Z,4.74
2017-10-30T07:08:45.626Z,4.76
2017-10-30T07:11:13.271Z,4.80
2017-10-30T07:13:40.938Z,4.88
2017-10-30T07:16:08.607Z,4.98
2017-10-30T07:18:36.248Z,5.01
2017-10-30T07:21:03.925Z,5.10
2017-10-30T07:23:31.594Z,5.16
2017-10-30T07:25:59.268Z,5.24
2017-10-30T07:28:26.954Z,5.28
2017-10-30T07:30:54.642Z,5.36
2017-10-30T07:33:22.288Z,5.43
2017-10-30T07:35:49.981Z,5.48
2017-10-30T07:38:17.653Z,5.56
2017-10-30T07:40:45.299Z,5.62
2017-10-30T07:43:12.996Z,5.68
2017-10-30T07:45:40.657Z,5.76
2017-10-30T07:48:08.344Z,5.79
2017-10-30T07:50:36.011Z,5.81
2017-10-30T07:53:03.712Z,5.85
2017-10-30T07:55:31.419Z,5.89
2017-10-30T07:57:59.121Z,5.94
2017-10-30T08:00:26.779Z,5.97
2017-10-30T08:02:54.442Z,6.04
2017-10-30T08:05:22.107Z,6.13
2017-10-30T08:07:49.803Z,6.20
2017-10-30T08:10:17.460Z,6.27
2017-10-30T08:12:45.105Z,6.35
2017-10-30T08:15:12.800Z,6.39
2017-10-30T08:17:40.473Z,6.46
2017-10-30T08:20:08.147Z,6.53
2017-10-30T08:22:35.842Z,6.58
2017-10-30T08:25:03.589Z,6.69
2017-10-30T08:27:31.271Z,6.73
2017-10-30T08:29:59.040Z,6.85
2017-10-30T08:32:26.693Z,6.86
2017-10-30T08:34:54.377Z,6.91
2017-10-30T08:37:22.018Z,7.01
2017-10-30T08:39:49.717Z,7.06
2017-10-30T08:42:17.372Z,7.04
2017-10-30T08:44:45.070Z,7.06
2017-10-30T08:47:12.733Z,7.14
2017-10-30T08:49:40.439Z,7.18
2017-10-30T08:52:08.135Z,7.22
2017-10-30T08:54:35.884Z,7.27
2017-10-30T08:57:03.538Z,7.29
2017-10-30T08:59:31.222Z,7.28
2017-10-30T09:01:58.865Z,7.39
2017-10-30T09:04:26.517Z,7.40
2017-10-30T09:06:54.216Z,7.46
2017-10-30T09:09:21.887Z,7.51
2017-10-30T09:11:49.553Z,7.57
2017-10-30T09:14:17.189Z,7.56
2017-10-30T09:16:44.882Z,7.64
2017-10-30T09:19:12.551Z,7.63
2017-10-30T09:21:40.246Z,7.68
2017-10-30T09:24:07.935Z,7.75
2017-10-30T09:26:35.624Z,7.85
2017-10-30T09:29:03.286Z,7.95
2017-10-30T09:31:31.007Z,8.09
2017-10-30T09:33:58.683Z,8.12
2017-10-30T09:36:26.354Z,8.10
2017-10-30T09:38:54.019Z,8.21
2017-10-30T09:41:21.742Z,8.29
2017-10-30T09:43:49.418Z,8.41
2017-10-30T09:46:17.102Z,8.42
2017-10-30T09:48:44.740Z,8.43
2017-10-30T09:51:12.438Z,8.59
2017-10-30T09:53:40.078Z,8.65
2017-10-30T09:56:07.764Z,8.74
2017-10-30T09:58:35.415Z,8.78
2017-10-30T10:01:03.103Z,8.84
2017-10-30T10:03:30.735Z,8.91
2017-10-30T10:05:58.490Z,8.98
2017-10-30T10:08:26.188Z,8.99
2017-10-30T10:10:53.839Z,9.01
2017-10-30T10:13:21.520Z,8.96
2017-10-30T10:15:49.180Z,9.01
2017-10-30T10:18:16.854Z,9.19
2017-10-30T10:20:44.492Z,9.17
2017-10-30T10:23:12.182Z,9.14
2017-10-30T10:25:39.871Z,9.07
2017-10-30T10:28:07.652Z,9.20
2017-10-30T10:30:35.330Z,9.40
2017-10-30T10:33:03.007Z,9.33
2017-10-30T10:35:30.711Z,9.37
2017-10-30T10:37:58.381Z,9.28
2017-10-30T10:40:25.975Z,9.29
2017-10-30T10:42:53.971Z,9.33
2017-10-30T10:45:21.648Z,9.44
2017-10-30T10:47:49.338Z,9.48
2017-10-30T10:50:16.991Z,9.50
2017-10-30T10:52:44.683Z,9.52
2017-10-30T10:55:12.331Z,9.54
2017-10-30T10:57:40.005Z,9.62
2017-10-30T11:00:07.678Z,9.62
2017-10-30T11:02:35.333Z,9.59
2017-10-30T11:05:02.944Z,9.54
2017-10-30T11:07:30.580Z,9.57
2017-10-30T11:09:58.275Z,9.67
2017-10-30T11:12:25.915Z,9.74
2017-10-30T11:14:53.575Z,9.72
2017-10-30T11:17:21.219Z,9.61
2017-10-30T11:19:48.914Z,9.55
2017-10-30T11:22:16.565Z,9.56
2017-10-30T11:24:44.239Z,9.60
2017-10-30T11:27:11.885Z,9.60
2017-10-30T11:29:39.859Z,9.75
2017-10-30T11:32:07.542Z,9.88
2017-10-30T11:34:35.211Z,9.99
2017-10-30T11:37:02.839Z,9.94
2017-10-30T11:39:30.484Z,10.07
2017-10-30T11:41:58.135Z,10.05
2017-10-30T11:44:25.855Z,9.97
2017-10-30T11:46:53.500Z,9.92
2017-10-30T11:49:21.148Z,9.62
2017-10-30T11:51:48.811Z,9.43
2017-10-30T11:54:16.475Z,9.58
2017-10-30T11:56:44.163Z,9.67
2017-10-30T11:59:11.836Z,9.60
2017-10-30T12:01:39.555Z,9.46
2017-10-30T12:04:07.225Z,9.46
2017-10-30T12:06:34.935Z,9.34
2017-10-30T12:09:02.575Z,9.37
2017-10-30T12:11:30.254Z,9.52
2017-10-30T12:13:57.925Z,9.54
2017-10-30T12:16:25.659Z,9.71
2017-10-30T12:18:53.323Z,9.75
2017-10-30T12:21:21.004Z,9.84
2017-10-30T12:23:48.652Z,9.93
2017-10-30T12:26:16.340Z,10.05
2017-10-30T12:28:43.923Z,10.00
2017-10-30T12:31:11.603Z,9.96
2017-10-30T12:33:39.299Z,9.82
2017-10-30T12:36:06.956Z,9.83
2017-10-30T12:38:34.651Z,9.80
2017-10-30T12:41:02.337Z,9.81
2017-10-30T12:43:30.010Z,9.80
2017-10-30T12:45:57.658Z,9.84
2017-10-30T12:48:25.355Z,9.89
2017-10-30T12:50:53.002Z,9.79
2017-10-30T12:53:20.695Z,9.72
2017-10-30T12:55:48.294Z,9.78
2017-10-30T12:58:16.004Z,9.86
2017-10-30T13:00:43.679Z,9.79
2017-10-30T13:03:11.354Z,9.81
2017-10-30T13:05:39.028Z,9.83
2017-10-30T13:08:06.682Z,9.83
2017-10-30T13:10:34.383Z,9.81
2017-10-30T13:13:02.074Z,9.89
2017-10-30T13:15:29.758Z,9.95
2017-10-30T13:17:57.396Z,9.94
2017-10-30T13:20:25.104Z,9.99
2017-10-30T13:22:52.686Z,10.00
2017-10-30T13:25:20.380Z,9.96
2017-10-30T13:27:48.027Z,9.94
2017-10-30T13:30:15.743Z,9.84
2017-10-30T13:32:43.378Z,9.82
2017-10-30T13:35:11.061Z,9.81
2017-10-30T13:37:39.028Z,9.88
2017-10-30T13:40:06.705Z,9.82
2017-10-30T13:42:34.357Z,9.88
2017-10-30T13:45:02.033Z,9.92
2017-10-30T13:47:29.703Z,9.88
2017-10-30T13:49:57.337Z,9.79
2017-10-30T13:52:25.023Z,9.71
2017-10-30T13:54:52.672Z,9.67
2017-10-30T13:57:20.347Z,9.68
2017-10-30T13:59:47.983Z,9.65
2017-10-30T14:02:16.126Z,9.63
2017-10-30T14:04:43.778Z,9.58
2017-10-30T14:07:11.478Z,9.59
2017-10-30T14:09:39.109Z,9.55
2017-10-30T14:12:06.988Z,9.53
2017-10-30T14:14:34.659Z,9.49
2017-10-30T14:17:02.320Z,9.49
2017-10-30T14:19:30.012Z,9.45
2017-10-30T14:21:57.668Z,9.49
2017-10-30T14:24:25.353Z,9.46
2017-10-30T14:26:52.992Z,9.40
2017-10-30T14:29:20.677Z,9.35
2017-10-30T14:31:48.380Z,9.37
2017-10-30T14:34:16.055Z,9.39
2017-10-30T14:36:43.674Z,9.31
2017-10-30T14:39:11.347Z,9.24
2017-10-30T14:41:38.943Z,9.22
2017-10-30T14:44:06.634Z,9.18
2017-10-30T14:46:34.208Z,9.10
2017-10-30T14:49:01.917Z,9.05
2017-10-30T14:51:29.570Z,9.00
2017-10-30T14:53:57.241Z,8.94
2017-10-30T14:56:24.871Z,8.89
2017-10-30T14:58:52.558Z,8.88
2017-10-30T15:01:20.165Z,8.89
2017-10-30T15:03:47.806Z,8.87
2017-10-30T15:06:15.488Z,8.80
2017-10-30T15:08:43.139Z,8.71
2017-10-30T15:11:10.828Z,8.69
2017-10-30T15:13:38.465Z,8.67
2017-10-30T15:16:06.143Z,8.58
2017-10-30T15:18:33.782Z,8.50
2017-10-30T15:21:01.469Z,8.46
2017-10-30T15:23:29.110Z,8.31
2017-10-30T15:25:56.786Z,8.16
2017-10-30T15:28:24.441Z,8.02
2017-10-30T15:30:52.188Z,7.83
2017-10-30T15:33:19.848Z,7.67
2017-10-30T15:35:47.524Z,7.62
2017-10-30T15:38:15.164Z,7.63
2017-10-30T15:40:42.866Z,7.56
2017-10-30T15:43:10.518Z,7.49
2017-10-30T15:45:38.224Z,7.43
2017-10-30T15:48:05.892Z,7.38
2017-10-30T15:50:33.534Z,7.32
2017-10-30T15:53:01.216Z,7.26
2017-10-30T15:55:28.866Z,7.23
2017-10-30T15:57:56.548Z,7.14
2017-10-30T16:00:24.199Z,6.96
2017-10-30T16:02:51.878Z,6.77
2017-10-30T16:05:19.508Z,6.58
2017-10-30T16:07:47.172Z,6.46
2017-10-30T16:10:14.831Z,6.36
2017-10-30T16:12:42.518Z,6.26
2017-10-30T16:15:10.174Z,6.22
2017-10-30T16:17:37.858Z,6.19
2017-10-30T16:20:05.490Z,6.18
2017-10-30T16:22:33.193Z,6.13
2017-10-30T16:25:00.831Z,6.04
2017-10-30T16:27:28.514Z,5.95
2017-10-30T16:29:56.177Z,5.87
2017-10-30T16:32:23.890Z,5.83
2017-10-30T16:34:51.559Z,5.82
2017-10-30T16:37:20.256Z,5.76
2017-10-30T16:39:47.901Z,5.72
2017-10-30T16:42:15.584Z,5.67
2017-10-30T16:44:43.266Z,5.65
2017-10-30T16:47:10.888Z,5.64
2017-10-30T16:49:38.608Z,5.60
2017-10-30T16:52:06.248Z,5.55
2017-10-30T16:54:33.938Z,5.50
2017-10-30T16:57:01.589Z,5.45
2017-10-30T16:59:29.282Z,5.42
2017-10-30T17:01:56.923Z,5.36
2017-10-30T17:04:24.611Z,5.28
2017-10-30T17:06:52.293Z,5.18
2017-10-30T17:09:19.983Z,5.08
2017-10-30T17:11:47.573Z,4.96
2017-10-30T17:14:15.288Z,4.84
2017-10-30T17:16:42.951Z,4.74
2017-10-30T17:19:10.634Z,4.67
2017-10-30T17:21:38.288Z,4.60
2017-10-30T17:24:13.757Z,4.53
2017-10-30T17:26:41.440Z,4.41
2017-10-30T17:29:09.083Z,4.36
2017-10-30T17:31:36.820Z,4.34
2017-10-30T17:34:04.476Z,4.28
2017-10-30T17:36:32.165Z,4.18
2017-10-30T17:38:59.807Z,4.21
2017-10-30T17:41:27.679Z,4.30
2017-10-30T17:43:55.347Z,4.35
2017-10-30T17:46:23.030Z,4.42
2017-10-30T17:48:50.674Z,4.40
2017-10-30T17:51:18.354Z,4.29
2017-10-30T17:53:46.004Z,4.25
2017-10-30T17:56:13.716Z,4.23
2017-10-30T17:58:41.361Z,4.24
2017-10-30T18:01:09.025Z,4.18
2017-10-30T18:03:36.673Z,4.08
2017-10-30T18:06:04.372Z,3.96
2017-10-30T18:08:32.029Z,3.86
2017-10-30T18:10:59.734Z,3.74
2017-10-30T18:13:27.389Z,3.63
2017-10-30T18:15:55.067Z,3.53
2017-10-30T18:18:22.722Z,3.45
2017-10-30T18:20:50.406Z,3.42
2017-10-30T18:23:18.055Z,3.39
2017-10-30T18:25:45.736Z,3.32
2017-10-30T18:28:13.397Z,3.25
2017-10-30T18:30:41.149Z,3.21
2017-10-30T18:33:08.810Z,3.22
2017-10-30T18:35:36.461Z,3.20
2017-10-30T18:38:04.165Z,3.17
2017-10-30T18:40:31.818Z,3.18
2017-10-30T18:42:59.532Z,3.18
2017-10-30T18:45:27.181Z,3.20
2017-10-30T18:47:54.889Z,3.17
2017-10-30T18:50:22.561Z,3.27
2017-10-30T18:52:50.235Z,3.33
2017-10-30T18:55:17.886Z,3.43
2017-10-30T18:57:45.570Z,3.57
2017-10-30T19:00:13.228Z,3.79
2017-10-30T19:02:40.932Z,3.96
2017-10-30T19:05:08.580Z,4.13
2017-10-30T19:07:36.278Z,4.25
2017-10-30T19:10:04.822Z,4.28
2017-10-30T19:12:32.538Z,4.28
2017-10-30T19:15:00.210Z,4.28
2017-10-30T19:17:27.854Z,4.32
2017-10-30T19:19:55.482Z,4.38
2017-10-30T19:22:23.158Z,4.45
2017-10-30T19:24:50.785Z,4.52
2017-10-30T19:27:18.432Z,4.58
2017-10-30T19:29:46.125Z,4.59
2017-10-30T19:32:13.846Z,4.61
2017-10-30T19:34:41.521Z,4.65
2017-10-30T19:37:09.162Z,4.70
2017-10-30T19:39:36.851Z,4.78
2017-10-30T19:42:04.513Z,4.77
2017-10-30T19:44:32.209Z,4.74
2017-10-30T19:46:59.833Z,4.70
2017-10-30T19:49:27.520Z,4.69
2017-10-30T19:51:55.182Z,4.67
2017-10-30T19:54:22.873Z,4.62
2017-10-30T19:56:50.514Z,4.62
2017-10-30T19:59:18.198Z,4.61
2017-10-30T20:01:45.864Z,4.61
2017-10-30T20:04:13.549Z,4.63
2017-10-30T20:06:46.773Z,4.70
2017-10-30T20:09:20.019Z,4.77
2017-10-30T20:11:53.200Z,4.78
2017-10-30T20:14:20.868Z,4.81
2017-10-30T20:16:48.708Z,4.82
2017-10-30T20:19:16.355Z,4.79
2017-10-30T20:21:44.034Z,4.76
2017-10-30T20:24:11.705Z,4.72
2017-10-30T20:26:39.408Z,4.63
2017-10-30T20:29:07.072Z,4.60
2017-10-30T20:31:34.789Z,4.59
2017-10-30T20:34:02.467Z,4.62
2017-10-30T20:36:30.144Z,4.66
2017-10-30T20:38:57.804Z,4.68
2017-10-30T20:41:25.533Z,4.68
2017-10-30T20:43:53.178Z,4.68
2017-10-30T20:46:20.877Z,4.67
2017-10-30T20:48:48.519Z,4.66
2017-10-30T20:51:16.210Z,4.61
2017-10-30T20:53:43.875Z,4.57
2017-10-30T20:56:11.585Z,4.59
2017-10-30T20:58:39.283Z,4.57
2017-10-30T21:01:06.870Z,4.57
2017-10-30T21:03:34.588Z,4.58
2017-10-30T21:06:02.217Z,4.60
2017-10-30T21:08:29.907Z,4.60
2017-10-30T21:10:57.575Z,4.60
2017-10-30T21:13:25.247Z,4.63
2017-10-30T21:15:52.938Z,4.65
2017-10-30T21:18:20.622Z,4.66
2017-10-30T21:20:48.281Z,4.65
2017-10-30T21:23:15.977Z,4.70
2017-10-30T21:25:43.618Z,4.70
2017-10-30T21:28:11.313Z,4.75
2017-10-30T21:30:39.810Z,4.77
2017-10-30T21:33:07.493Z,4.87
2017-10-30T21:35:35.130Z,4.90
2017-10-30T21:38:02.816Z,4.97
2017-10-30T21:40:30.486Z,5.02
2017-10-30T21:42:58.166Z,5.07
2017-10-30T21:45:25.819Z,5.15
2017-10-30T21:47:53.478Z,5.19
2017-10-30T21:50:21.173Z,5.25
2017-10-30T21:52:48.822Z,5.28
2017-10-30T21:55:16.511Z,5.33
2017-10-30T21:57:44.155Z,5.39
2017-10-30T22:00:11.872Z,5.40
2017-10-30T22:02:39.496Z,5.41
2017-10-30T22:05:07.183Z,5.41
2017-10-30T22:07:34.827Z,5.40
2017-10-30T22:10:02.503Z,5.42
2017-10-30T22:12:30.166Z,5.43
2017-10-30T22:14:57.857Z,5.42
2017-10-30T22:17:25.500Z,5.40
2017-10-30T22:19:53.192Z,5.43
2017-10-30T22:22:20.857Z,5.49
2017-10-30T22:24:48.566Z,5.51
2017-10-30T22:27:16.211Z,5.54
2017-10-30T22:29:43.852Z,5.56
2017-10-30T22:32:11.556Z,5.57
2017-10-30T22:34:39.204Z,5.58
2017-10-30T22:37:06.873Z,5.56
2017-10-30T22:39:34.509Z,5.54
2017-10-30T22:42:02.195Z,5.52
2017-10-30T22:44:29.832Z,5.53
2017-10-30T22:46:57.525Z,5.55
2017-10-30T22:49:25.164Z,5.56
2017-10-30T22:51:52.834Z,5.57
2017-10-30T22:54:20.478Z,5.60
2017-10-30T22:56:48.158Z,5.62
2017-10-30T22:59:15.802Z,5.61
2017-10-30T23:01:43.527Z,5.61
2017-10-30T23:04:11.161Z,5.62
2017-10-30T23:06:38.822Z,5.63
2017-10-30T23:09:06.470Z,5.62
2017-10-30T23:11:34.127Z,5.62
2017-10-30T23:14:01.821Z,5.63
2017-10-30T23:16:29.462Z,5.65
2017-10-30T23:18:57.146Z,5.67
2017-10-30T23:21:24.798Z,5.71
2017-10-30T23:23:52.491Z,5.73
2017-10-30T23:26:20.210Z,5.77
2017-10-30T23:28:47.909Z,5.80
2017-10-30T23:31:15.613Z,5.80
2017-10-30T23:33:43.290Z,5.81
2017-10-30T23:36:10.953Z,5.81
2017-10-30T23:38:38.643Z,5.84
2017-10-30T23:41:06.269Z,5.87
2017-10-30T23:43:33.963Z,5.88
2017-10-30T23:46:01.623Z,5.90
2017-10-30T23:48:29.261Z,5.91
2017-10-30T23:50:56.878Z,5.96
2017-10-30T23:53:24.506Z,5.99
2017-10-30T23:55:52.197Z,6.03
2017-10-30T23:58:19.834Z,6.05
